createdAt,value
2022-12-03T03:38:07.691Z,33.30
2022-12-03T03:40:34.735Z,34.00
2022-12-03T03:43:01.702Z,36.20
2022-12-03T03:45:29.585Z,39.20
2022-12-03T03:47:57.912Z,34.80
2022-12-03T03:50:25.036Z,33.80
2022-12-03T03:52:51.960Z,32.40
2022-12-03T03:55:20.457Z,37.10
2022-12-03T03:57:47.629Z,44.50
2022-12-03T04:00:17.003Z,40.80
2022-12-03T04:02:43.996Z,30.40
2022-12-03T04:05:21.492Z,35.20
2022-12-03T04:07:48.599Z,39.50
2022-12-03T04:10:34.400Z,38.70
2022-12-03T04:13:01.555Z,45.70
2022-12-03T04:15:28.812Z,49.40
2022-12-03T04:18:14.526Z,40.80
2022-12-03T04:20:41.666Z,39.00
2022-12-03T04:23:08.636Z,38.10
2022-12-03T04:25:54.464Z,43.60
2022-12-03T04:28:40.188Z,40.30
2022-12-03T04:31:25.632Z,39.40
2022-12-03T04:34:11.458Z,34.70
2022-12-03T04:36:38.730Z,36.70
2022-12-03T04:39:05.861Z,40.20
2022-12-03T04:41:32.772Z,42.40
2022-12-03T04:44:18.477Z,44.60
2022-12-03T04:46:45.490Z,44.70
2022-12-03T04:49:13.018Z,43.60
2022-12-03T04:51:39.902Z,42.90
2022-12-03T04:54:06.903Z,40.80
2022-12-03T04:56:33.875Z,45.30
2022-12-03T04:59:00.846Z,46.70
2022-12-03T05:01:27.909Z,48.60
2022-12-03T05:03:54.906Z,39.90
2022-12-03T05:06:22.028Z,41.50
2022-12-03T05:08:49.100Z,51.80
2022-12-03T05:11:16.049Z,48.90
2022-12-03T05:13:43.286Z,60.40
2022-12-03T05:16:10.465Z,88.70
2022-12-03T05:18:37.491Z,48.00
2022-12-03T05:21:04.495Z,44.00
2022-12-03T05:23:32.321Z,48.40
2022-12-03T05:25:59.257Z,51.00
2022-12-03T05:28:26.275Z,49.20
2022-12-03T05:30:53.293Z,52.70
2022-12-03T05:33:21.167Z,43.30
2022-12-03T05:35:48.111Z,44.10
2022-12-03T05:38:15.125Z,44.80
2022-12-03T05:40:42.171Z,43.50
2022-12-03T05:43:09.071Z,44.50
2022-12-03T05:45:37.703Z,47.90
2022-12-03T05:48:05.824Z,36.70
2022-12-03T05:50:33.882Z,33.90
2022-12-03T05:53:14.028Z,37.00
2022-12-03T05:55:41.060Z,40.60
2022-12-03T05:58:08.118Z,47.40
2022-12-03T06:00:42.374Z,47.40
2022-12-03T06:03:09.920Z,45.20
2022-12-03T06:05:37.088Z,45.60
2022-12-03T06:08:04.121Z,43.80
2022-12-03T06:10:31.338Z,50.30
2022-12-03T06:12:58.328Z,50.60
2022-12-03T06:15:25.271Z,53.50
2022-12-03T06:17:52.584Z,51.00
2022-12-03T06:20:20.181Z,57.40
2022-12-03T06:22:47.707Z,50.20
2022-12-03T06:25:15.211Z,43.80
2022-12-03T06:27:42.255Z,87.20
2022-12-03T06:30:11.677Z,70.80
2022-12-03T06:32:38.943Z,120.40
2022-12-03T06:35:06.066Z,64.20
2022-12-03T06:37:33.023Z,53.10
2022-12-03T06:40:03.127Z,59.60
2022-12-03T06:42:30.494Z,203.60
2022-12-03T06:44:57.526Z,136.30
2022-12-03T06:47:24.587Z,102.70
2022-12-03T06:49:51.589Z,58.30
2022-12-03T06:52:18.580Z,125.00
2022-12-03T06:54:45.641Z,58.70
2022-12-03T06:57:12.706Z,57.50
2022-12-03T06:59:39.620Z,54.70
2022-12-03T07:02:06.867Z,47.80
2022-12-03T07:04:33.898Z,45.00
2022-12-03T07:07:00.841Z,42.20
2022-12-03T07:09:27.897Z,29.50
2022-12-03T07:11:54.850Z,37.60
2022-12-03T07:14:21.876Z,38.10
2022-12-03T07:16:48.929Z,39.60
2022-12-03T07:19:15.915Z,37.00
2022-12-03T07:21:42.914Z,37.50
2022-12-03T07:24:09.922Z,41.00
2022-12-03T07:26:36.929Z,30.30
2022-12-03T07:29:03.962Z,40.50
2022-12-03T07:31:30.989Z,36.90
2022-12-03T07:33:58.067Z,35.30
2022-12-03T07:36:25.150Z,37.30
2022-12-03T07:38:52.553Z,43.70
2022-12-03T07:41:19.592Z,89.50
2022-12-03T07:43:46.550Z,48.90
2022-12-03T07:46:13.505Z,41.00
2022-12-03T07:48:40.510Z,39.00
2022-12-03T07:51:08.819Z,40.90
2022-12-03T07:53:37.489Z,35.70
2022-12-03T07:56:05.048Z,32.80
2022-12-03T07:58:32.062Z,39.80
2022-12-03T08:00:59.185Z,32.60
2022-12-03T08:03:26.130Z,37.80
2022-12-03T08:05:53.096Z,36.40
2022-12-03T08:08:20.031Z,36.80
2022-12-03T08:10:47.043Z,44.30
2022-12-03T08:13:15.383Z,41.30
2022-12-03T08:15:42.534Z,45.40
2022-12-03T08:18:20.441Z,74.40
2022-12-03T08:20:48.955Z,135.70
2022-12-03T08:23:21.844Z,62.00
2022-12-03T08:25:51.425Z,36.90
2022-12-03T08:28:26.691Z,44.80
2022-12-03T08:31:21.074Z,47.00
2022-12-03T08:33:49.331Z,52.30
2022-12-03T08:36:20.534Z,38.80
2022-12-03T08:38:57.825Z,41.80
2022-12-03T08:41:43.612Z,48.00
2022-12-03T08:44:30.694Z,48.10
2022-12-03T08:47:02.338Z,38.80
2022-12-03T08:49:29.321Z,43.30
2022-12-03T08:51:57.524Z,48.50
2022-12-03T08:54:24.543Z,39.20
2022-12-03T08:56:51.473Z,37.40
2022-12-03T08:59:31.185Z,35.70
2022-12-03T09:01:58.627Z,35.50
2022-12-03T09:04:45.459Z,45.10
2022-12-03T11:27:19.386Z,52.50
2022-12-03T11:29:47.471Z,38.10
2022-12-03T11:32:42.622Z,35.30
2022-12-03T11:35:13.401Z,41.20
2022-12-03T11:37:40.347Z,50.20
2022-12-03T11:40:16.570Z,38.10
2022-12-03T11:42:43.627Z,28.80
2022-12-03T11:45:10.541Z,32.00
2022-12-03T11:47:42.154Z,38.30
2022-12-03T11:50:40.425Z,56.60
2022-12-03T11:53:10.567Z,30.20
2022-12-03T11:55:38.789Z,62.60
2022-12-03T11:58:26.429Z,48.60
2022-12-03T12:00:55.326Z,43.00
2022-12-03T12:03:27.146Z,31.90
2022-12-03T12:06:10.866Z,44.80
2022-12-03T12:09:03.857Z,53.20
2022-12-03T12:11:32.373Z,43.60
2022-12-03T12:13:59.888Z,39.10
2022-12-03T12:16:52.779Z,52.80
2022-12-03T12:19:40.235Z,47.70
2022-12-03T12:22:25.601Z,51.00
2022-12-03T12:24:53.550Z,44.50
2022-12-03T12:27:31.637Z,54.70
2022-12-03T12:30:01.227Z,46.60
2022-12-03T12:32:29.990Z,43.30
2022-12-03T12:35:19.974Z,58.10
2022-12-03T12:37:56.798Z,77.40
2022-12-03T12:40:27.924Z,120.90
2022-12-03T12:42:59.482Z,48.60
2022-12-03T12:45:28.172Z,37.90
2022-12-03T12:48:04.240Z,35.60
2022-12-03T12:50:31.705Z,48.40
2022-12-03T12:53:23.914Z,40.10
2022-12-03T12:56:21.217Z,39.50
2022-12-03T12:58:48.157Z,39.20
2022-12-03T13:01:20.842Z,35.80
2022-12-03T13:03:50.273Z,34.60
2022-12-03T13:06:17.325Z,32.90
2022-12-03T13:08:48.952Z,38.50
2022-12-03T13:11:25.383Z,37.30
2022-12-03T13:13:52.288Z,38.40
2022-12-03T13:16:26.658Z,31.30
2022-12-03T13:18:54.799Z,37.90
2022-12-03T13:21:46.260Z,41.80
2022-12-03T13:24:34.701Z,40.80
2022-12-03T13:27:20.772Z,36.90
2022-12-03T13:30:02.329Z,48.20
2022-12-03T13:32:38.799Z,34.50
2022-12-03T13:35:24.182Z,40.60
2022-12-03T13:37:51.149Z,38.80
2022-12-03T13:40:25.671Z,35.90
2022-12-03T13:42:53.256Z,37.80
2022-12-03T13:45:20.261Z,40.80
2022-12-03T13:47:53.451Z,31.20
2022-12-03T13:50:36.383Z,32.10
2022-12-03T13:53:20.261Z,42.80
2022-12-03T13:55:49.370Z,34.80
2022-12-03T13:58:16.359Z,39.10
2022-12-03T14:00:43.430Z,41.00
2022-12-03T14:03:10.427Z,32.90
2022-12-03T14:05:37.328Z,34.00
2022-12-03T14:08:06.122Z,37.60
2022-12-03T14:10:33.351Z,35.70
2022-12-03T14:13:00.356Z,42.90
2022-12-03T14:15:27.422Z,39.40
2022-12-03T14:17:54.463Z,27.60
2022-12-03T14:20:21.616Z,30.60
2022-12-03T14:22:48.635Z,27.50
2022-12-03T14:25:15.706Z,30.20
2022-12-03T14:27:42.640Z,32.30
2022-12-03T14:30:10.112Z,32.80
2022-12-03T14:32:37.097Z,28.80
2022-12-03T14:35:09.699Z,29.10
2022-12-03T14:37:37.220Z,102.20
2022-12-03T14:40:07.111Z,83.40
2022-12-03T14:42:34.074Z,55.00
2022-12-03T14:45:01.124Z,39.00
2022-12-03T14:47:28.063Z,45.40
2022-12-03T14:49:55.090Z,37.40
2022-12-03T14:52:22.186Z,54.00
2022-12-03T14:54:49.515Z,44.20
2022-12-03T14:57:16.645Z,48.30
2022-12-03T14:59:43.972Z,73.20
2022-12-03T15:02:11.134Z,50.10
2022-12-03T15:04:39.033Z,49.20
2022-12-03T15:07:06.148Z,43.90
2022-12-03T15:09:33.191Z,45.40
2022-12-03T15:12:00.289Z,41.60
2022-12-03T15:14:27.293Z,40.30
2022-12-03T15:16:54.713Z,27.80
2022-12-03T15:19:21.653Z,27.60
2022-12-03T15:21:48.615Z,31.40
2022-12-03T15:24:15.602Z,30.40
2022-12-03T15:26:42.527Z,33.80
2022-12-03T15:29:09.485Z,33.90
2022-12-03T15:31:36.585Z,30.10
2022-12-03T15:34:04.100Z,26.70
2022-12-03T15:36:31.120Z,30.40
2022-12-03T15:38:58.105Z,32.20
2022-12-03T15:41:29.135Z,28.80
2022-12-03T15:44:01.539Z,31.60
2022-12-03T15:46:28.782Z,27.70
2022-12-03T15:48:55.837Z,23.90
2022-12-03T15:51:23.248Z,26.10
2022-12-03T15:53:50.266Z,31.10
2022-12-03T15:56:17.254Z,30.80
2022-12-03T15:58:44.197Z,42.80
2022-12-03T16:01:13.577Z,27.50
2022-12-03T16:03:41.410Z,34.30
2022-12-03T16:06:08.923Z,30.80
2022-12-03T16:08:35.944Z,30.20
2022-12-03T16:11:04.043Z,29.00
2022-12-03T16:13:31.477Z,33.40
2022-12-03T16:15:58.452Z,29.10
2022-12-03T16:18:25.495Z,29.00
2022-12-03T16:20:52.823Z,33.90
2022-12-03T16:23:19.744Z,31.80
2022-12-03T16:25:46.780Z,34.60
2022-12-03T16:28:13.666Z,29.40
2022-12-03T16:30:40.781Z,25.20
2022-12-03T16:33:07.875Z,26.40
2022-12-03T16:35:34.782Z,25.60
2022-12-03T16:38:01.685Z,24.80
2022-12-03T16:40:28.708Z,26.70
2022-12-03T16:42:56.681Z,29.50
2022-12-03T16:45:29.601Z,25.30
2022-12-03T16:47:56.605Z,29.30
2022-12-03T16:50:29.436Z,34.80
2022-12-03T16:52:57.691Z,31.40
2022-12-03T16:55:24.745Z,36.60
2022-12-03T16:57:51.657Z,31.90
2022-12-03T17:00:21.785Z,28.00
2022-12-03T17:02:48.924Z,29.30
2022-12-03T17:05:16.071Z,30.20
2022-12-03T18:31:57.067Z,28.00
2022-12-03T18:34:23.369Z,18.90
2022-12-03T18:36:49.894Z,28.60
2022-12-03T18:39:26.907Z,22.10
2022-12-03T18:41:53.277Z,20.90
2022-12-03T18:44:19.556Z,23.80
2022-12-03T18:46:53.486Z,22.90
2022-12-03T18:49:20.588Z,20.10
2022-12-03T18:51:48.320Z,20.00
2022-12-03T18:54:15.037Z,27.30
2022-12-03T18:56:41.431Z,30.30
2022-12-03T18:59:08.072Z,25.20
2022-12-03T19:01:34.621Z,17.00
2022-12-03T19:04:01.188Z,23.10
2022-12-03T19:06:30.513Z,23.50
2022-12-03T19:08:56.952Z,31.00
2022-12-03T19:11:23.335Z,26.50
2022-12-03T19:13:50.718Z,33.50
2022-12-03T19:16:17.111Z,21.10
2022-12-03T19:18:43.715Z,38.00
2022-12-03T19:21:11.924Z,25.30
2022-12-03T19:23:38.619Z,29.40
2022-12-03T19:26:07.197Z,43.90
2022-12-03T19:28:33.503Z,39.40
2022-12-03T19:31:11.071Z,23.80
2022-12-03T19:33:38.233Z,25.50
2022-12-03T19:36:06.275Z,47.40
2022-12-03T19:38:32.981Z,42.60
2022-12-03T19:41:05.869Z,29.40
2022-12-03T19:43:34.044Z,29.80
2022-12-03T19:46:05.439Z,21.40
2022-12-03T19:48:32.653Z,24.20
2022-12-03T19:51:19.826Z,43.90
2022-12-03T19:53:46.804Z,42.30
2022-12-03T19:56:15.885Z,46.60
2022-12-03T19:58:44.409Z,56.00
2022-12-03T20:01:13.143Z,27.10
2022-12-03T20:03:44.409Z,37.50
2022-12-03T20:06:11.693Z,29.00
2022-12-03T20:08:38.869Z,30.10
2022-12-03T20:11:13.397Z,37.00
2022-12-03T20:13:41.778Z,28.30
2022-12-03T20:16:11.548Z,23.30
2022-12-03T20:18:40.299Z,26.00
2022-12-03T20:21:07.332Z,30.50
2022-12-03T20:23:33.696Z,32.90
2022-12-03T20:26:00.033Z,36.70
2022-12-03T20:28:27.019Z,42.00
2022-12-03T20:31:00.606Z,23.70
2022-12-03T20:33:26.988Z,29.20
2022-12-03T20:35:56.534Z,30.20
2022-12-03T20:38:25.546Z,34.80
2022-12-03T20:40:51.834Z,41.20
2022-12-03T20:43:18.387Z,40.20
2022-12-03T20:45:44.804Z,42.80
2022-12-03T20:48:11.232Z,106.70
2022-12-03T20:50:38.493Z,61.30
2022-12-03T20:53:23.787Z,61.60
2022-12-03T20:55:55.698Z,40.90
2022-12-03T21:00:48.182Z,31.00
2022-12-03T21:03:14.496Z,45.40
2022-12-03T21:05:41.961Z,62.50
2022-12-03T21:08:08.334Z,48.40
2022-12-03T21:10:43.995Z,42.80
2022-12-03T21:13:14.302Z,33.50
2022-12-03T21:15:41.136Z,28.00
2022-12-03T21:18:08.594Z,37.20
2022-12-03T21:20:45.888Z,37.70
2022-12-03T21:23:12.730Z,26.60
2022-12-03T21:25:39.315Z,28.90
2022-12-03T21:28:06.589Z,29.40
2022-12-03T21:30:32.963Z,21.70
2022-12-03T21:32:59.504Z,21.50
2022-12-03T21:35:25.772Z,35.50
2022-12-03T21:37:52.126Z,25.20
2022-12-03T21:40:18.888Z,27.80
2022-12-03T21:42:45.690Z,28.30
2022-12-03T21:45:12.151Z,28.40
2022-12-03T21:47:38.439Z,25.80
2022-12-03T21:50:06.166Z,25.50
2022-12-03T21:52:34.314Z,24.60
2022-12-03T21:55:00.633Z,24.90
2022-12-03T21:57:26.903Z,26.30
2022-12-03T21:59:54.969Z,23.90
2022-12-03T22:02:22.255Z,20.60
2022-12-03T22:04:49.653Z,21.10
2022-12-03T22:07:16.093Z,26.80
2022-12-03T22:09:42.319Z,23.30
2022-12-03T22:12:08.583Z,25.90
2022-12-03T22:14:35.072Z,20.80
2022-12-03T22:17:01.405Z,25.20
2022-12-03T22:19:27.826Z,21.60
2022-12-03T22:21:54.109Z,23.60
2022-12-03T22:24:20.470Z,30.70
2022-12-03T22:26:46.994Z,28.50
2022-12-03T22:29:13.347Z,21.40
2022-12-03T22:31:39.892Z,23.90
2022-12-03T22:34:06.391Z,21.90
2022-12-03T22:36:32.822Z,23.60
2022-12-03T22:38:59.092Z,22.80
2022-12-03T22:41:25.335Z,23.50
2022-12-03T22:43:51.579Z,16.90
2022-12-03T22:46:17.978Z,17.00
2022-12-03T22:48:46.578Z,19.80
2022-12-03T22:51:14.709Z,22.20
2022-12-03T22:53:40.902Z,22.10
2022-12-03T22:56:07.414Z,23.50
2022-12-03T22:58:33.865Z,19.60
2022-12-03T23:01:03.239Z,17.70
2022-12-03T23:03:30.085Z,19.00
2022-12-03T23:05:56.606Z,28.20
2022-12-03T23:08:22.993Z,25.20
2022-12-03T23:10:50.588Z,23.90
2022-12-03T23:13:17.016Z,17.00
2022-12-03T23:15:51.444Z,17.40
2022-12-03T23:18:18.394Z,18.70
2022-12-03T23:20:46.393Z,18.40
2022-12-03T23:23:12.782Z,19.70
2022-12-03T23:25:39.173Z,19.80
2022-12-03T23:28:05.537Z,14.40
2022-12-03T23:30:37.617Z,16.00
2022-12-03T23:33:04.707Z,16.70
2022-12-03T23:35:31.883Z,17.00
2022-12-03T23:37:58.352Z,17.60
2022-12-03T23:40:24.668Z,71.60
2022-12-03T23:42:50.913Z,36.60
2022-12-03T23:45:17.318Z,32.30
2022-12-03T23:47:44.246Z,22.70
2022-12-03T23:50:10.997Z,30.10
2022-12-03T23:52:37.360Z,22.50
2022-12-03T23:55:03.885Z,63.10
2022-12-03T23:57:30.193Z,65.70
2022-12-03T23:59:56.773Z,16.40
